sensor_id;sensor_type;location;lat;lon;timestamp;pressure;altitude;pressure_sealevel;temperature;humidity
3150;BME280;32503;47.748;8.960;2023-03-17T00:01:10;96657.16;;;6.02;54.51
3150;BME280;32503;47.748;8.960;2023-03-17T00:03:39;96668.59;;;6.12;54.30
3150;BME280;32503;47.748;8.960;2023-03-17T00:06:12;96666.16;;;6.19;54.13
3150;BME280;32503;47.748;8.960;2023-03-17T00:08:41;96664.13;;;6.16;53.83
3150;BME280;32503;47.748;8.960;2023-03-17T00:11:12;96661.44;;;6.16;53.75
3150;BME280;32503;47.748;8.960;2023-03-17T00:13:42;96653.63;;;6.11;53.80
3150;BME280;32503;47.748;8.960;2023-03-17T00:16:15;96653.94;;;6.09;53.96
3150;BME280;32503;47.748;8.960;2023-03-17T00:18:43;96654.03;;;6.00;54.28
3150;BME280;32503;47.748;8.960;2023-03-17T00:21:13;96654.16;;;6.04;53.60
3150;BME280;32503;47.748;8.960;2023-03-17T00:23:48;96645.19;;;5.91;54.50
3150;BME280;32503;47.748;8.960;2023-03-17T00:26:16;96653.72;;;5.93;54.80
3150;BME280;32503;47.748;8.960;2023-03-17T00:28:45;96655.69;;;5.84;55.43
3150;BME280;32503;47.748;8.960;2023-03-17T00:31:15;96646.72;;;5.80;55.27
3150;BME280;32503;47.748;8.960;2023-03-17T00:33:45;96651.66;;;5.78;55.07
3150;BME280;32503;47.748;8.960;2023-03-17T00:36:16;96643.28;;;5.79;55.41
3150;BME280;32503;47.748;8.960;2023-03-17T00:38:44;96650.19;;;5.80;55.03
3150;BME280;32503;47.748;8.960;2023-03-17T00:41:12;96653.19;;;5.79;55.46
3150;BME280;32503;47.748;8.960;2023-03-17T00:43:39;96656.09;;;5.74;55.43
3150;BME280;32503;47.748;8.960;2023-03-17T00:46:12;96664.59;;;5.76;55.56
3150;BME280;32503;47.748;8.960;2023-03-17T00:48:42;96656.50;;;5.63;55.92
3150;BME280;32503;47.748;8.960;2023-03-17T00:51:09;96666.28;;;5.59;56.29
3150;BME280;32503;47.748;8.960;2023-03-17T00:53:37;96661.25;;;5.58;56.06
3150;BME280;32503;47.748;8.960;2023-03-17T00:56:11;96643.97;;;5.67;55.52
3150;BME280;32503;47.748;8.960;2023-03-17T00:58:39;96641.09;;;5.73;55.37
3150;BME280;32503;47.748;8.960;2023-03-17T01:01:07;96626.53;;;5.61;55.37
3150;BME280;32503;47.748;8.960;2023-03-17T01:03:37;96640.25;;;5.60;56.10
3150;BME280;32503;47.748;8.960;2023-03-17T01:06:08;96629.59;;;5.51;56.37
3150;BME280;32503;47.748;8.960;2023-03-17T01:08:37;96630.38;;;5.51;56.33
3150;BME280;32503;47.748;8.960;2023-03-17T01:11:05;96621.38;;;5.56;56.19
3150;BME280;32503;47.748;8.960;2023-03-17T01:13:33;96617.22;;;5.59;56.35
3150;BME280;32503;47.748;8.960;2023-03-17T01:16:01;96613.78;;;5.58;56.24
3150;BME280;32503;47.748;8.960;2023-03-17T01:18:28;96599.25;;;5.59;55.81
3150;BME280;32503;47.748;8.960;2023-03-17T01:20:56;96604.94;;;5.58;56.35
3150;BME280;32503;47.748;8.960;2023-03-17T01:23:23;96598.78;;;5.57;55.95
3150;BME280;32503;47.748;8.960;2023-03-17T01:25:50;96592.19;;;5.55;56.00
3150;BME280;32503;47.748;8.960;2023-03-17T01:28:19;96587.16;;;5.53;55.88
3150;BME280;32503;47.748;8.960;2023-03-17T01:30:46;96593.47;;;5.48;56.58
3150;BME280;32503;47.748;8.960;2023-03-17T01:33:14;96602.66;;;5.47;56.50
3150;BME280;32503;47.748;8.960;2023-03-17T01:35:42;96601.53;;;5.48;56.81
3150;BME280;32503;47.748;8.960;2023-03-17T01:38:12;96599.03;;;5.43;56.98
3150;BME280;32503;47.748;8.960;2023-03-17T01:40:44;96583.25;;;5.29;56.96
3150;BME280;32503;47.748;8.960;2023-03-17T01:43:20;96560.84;;;5.25;56.63
3150;BME280;32503;47.748;8.960;2023-03-17T01:46:17;96594.88;;;5.55;56.59
3150;BME280;32503;47.748;8.960;2023-03-17T01:49:10;96592.91;;;5.43;56.86
3150;BME280;32503;47.748;8.960;2023-03-17T01:51:48;96591.88;;;5.35;57.18
3150;BME280;32503;47.748;8.960;2023-03-17T01:54:22;96571.31;;;5.18;57.55
3150;BME280;32503;47.748;8.960;2023-03-17T01:56:51;96590.97;;;5.22;57.71
3150;BME280;32503;47.748;8.960;2023-03-17T01:59:26;96570.50;;;4.97;58.33
3150;BME280;32503;47.748;8.960;2023-03-17T02:02:00;96564.25;;;4.92;59.17
3150;BME280;32503;47.748;8.960;2023-03-17T02:04:29;96586.34;;;5.10;59.08
3150;BME280;32503;47.748;8.960;2023-03-17T02:06:56;96581.13;;;5.14;58.73
3150;BME280;32503;47.748;8.960;2023-03-17T02:09:26;96544.75;;;5.04;58.92
3150;BME280;32503;47.748;8.960;2023-03-17T02:11:54;96558.31;;;5.29;58.30
3150;BME280;32503;47.748;8.960;2023-03-17T02:14:22;96534.00;;;5.13;58.44
3150;BME280;32503;47.748;8.960;2023-03-17T02:16:50;96560.41;;;5.23;58.75
3150;BME280;32503;47.748;8.960;2023-03-17T02:19:17;96578.91;;;5.16;59.38
3150;BME280;32503;47.748;8.960;2023-03-17T02:21:47;96585.53;;;5.10;59.48
3150;BME280;32503;47.748;8.960;2023-03-17T02:24:27;96583.28;;;5.00;60.24
3150;BME280;32503;47.748;8.960;2023-03-17T02:27:02;96581.03;;;5.02;59.86
3150;BME280;32503;47.748;8.960;2023-03-17T02:29:32;96575.69;;;5.02;60.18
3150;BME280;32503;47.748;8.960;2023-03-17T02:32:01;96568.97;;;5.17;59.40
3150;BME280;32503;47.748;8.960;2023-03-17T02:34:28;96573.53;;;5.16;59.46
3150;BME280;32503;47.748;8.960;2023-03-17T02:36:58;96578.25;;;5.19;59.29
3150;BME280;32503;47.748;8.960;2023-03-17T02:39:25;96581.44;;;5.12;59.59
3150;BME280;32503;47.748;8.960;2023-03-17T02:41:52;96584.19;;;5.04;59.93
3150;BME280;32503;47.748;8.960;2023-03-17T02:44:19;96581.50;;;5.04;59.74
3150;BME280;32503;47.748;8.960;2023-03-17T02:46:46;96561.84;;;5.00;59.74
3150;BME280;32503;47.748;8.960;2023-03-17T02:49:14;96581.31;;;5.09;59.67
3150;BME280;32503;47.748;8.960;2023-03-17T02:51:42;96580.41;;;5.05;59.74
3150;BME280;32503;47.748;8.960;2023-03-17T02:54:11;96579.28;;;5.06;59.07
3150;BME280;32503;47.748;8.960;2023-03-17T02:56:38;96574.81;;;5.10;59.40
3150;BME280;32503;47.748;8.960;2023-03-17T02:59:05;96571.06;;;5.11;59.23
3150;BME280;32503;47.748;8.960;2023-03-17T03:01:33;96543.72;;;4.97;59.29
3150;BME280;32503;47.748;8.960;2023-03-17T03:04:00;96563.84;;;5.03;59.49
3150;BME280;32503;47.748;8.960;2023-03-17T03:06:28;96568.56;;;5.06;59.43
3150;BME280;32503;47.748;8.960;2023-03-17T03:08:56;96574.09;;;5.01;59.90
3150;BME280;32503;47.748;8.960;2023-03-17T03:11:24;96574.28;;;4.96;59.94
3150;BME280;32503;47.748;8.960;2023-03-17T03:13:52;96575.75;;;4.93;60.03
3150;BME280;32503;47.748;8.960;2023-03-17T03:16:19;96581.88;;;4.93;60.05
3150;BME280;32503;47.748;8.960;2023-03-17T03:18:46;96560.41;;;4.72;60.53
3150;BME280;32503;47.748;8.960;2023-03-17T03:21:14;96591.66;;;4.89;60.25
3150;BME280;32503;47.748;8.960;2023-03-17T03:23:41;96593.09;;;4.87;60.49
3150;BME280;32503;47.748;8.960;2023-03-17T03:26:08;96587.22;;;4.93;60.39
3150;BME280;32503;47.748;8.960;2023-03-17T03:28:36;96588.81;;;4.94;60.30
3150;BME280;32503;47.748;8.960;2023-03-17T03:31:04;96586.59;;;4.97;60.33
3150;BME280;32503;47.748;8.960;2023-03-17T03:33:32;96574.97;;;4.92;60.46
3150;BME280;32503;47.748;8.960;2023-03-17T03:35:59;96581.09;;;4.93;60.29
3150;BME280;32503;47.748;8.960;2023-03-17T03:38:27;96589.31;;;4.88;60.60
3150;BME280;32503;47.748;8.960;2023-03-17T03:40:54;96596.53;;;4.96;60.54
3150;BME280;32503;47.748;8.960;2023-03-17T03:43:21;96592.41;;;4.99;60.23
3150;BME280;32503;47.748;8.960;2023-03-17T03:45:50;96586.72;;;5.00;60.24
3150;BME280;32503;47.748;8.960;2023-03-17T03:48:20;96587.50;;;5.01;60.35
3150;BME280;32503;47.748;8.960;2023-03-17T03:50:47;96568.56;;;4.76;60.53
3150;BME280;32503;47.748;8.960;2023-03-17T03:53:14;96589.44;;;4.91;60.37
3150;BME280;32503;47.748;8.960;2023-03-17T03:55:41;96607.09;;;4.92;60.74
3150;BME280;32503;47.748;8.960;2023-03-17T03:58:08;96606.81;;;4.85;61.02
3150;BME280;32503;47.748;8.960;2023-03-17T04:00:36;96599.25;;;4.87;60.83
3150;BME280;32503;47.748;8.960;2023-03-17T04:03:04;96600.34;;;4.86;60.94
3150;BME280;32503;47.748;8.960;2023-03-17T04:05:32;96601.59;;;4.89;60.78
3150;BME280;32503;47.748;8.960;2023-03-17T04:07:59;96598.56;;;4.90;60.63
3150;BME280;32503;47.748;8.960;2023-03-17T04:10:26;96593.88;;;4.87;60.46
3150;BME280;32503;47.748;8.960;2023-03-17T04:12:53;96589.19;;;4.84;nan
3150;BME280;32503;47.748;8.960;2023-03-17T04:15:21;96591.53;;;4.86;60.69
3150;BME280;32503;47.748;8.960;2023-03-17T04:17:49;96584.28;;;4.86;60.48
3150;BME280;32503;47.748;8.960;2023-03-17T04:20:18;96573.75;;;4.81;60.33
3150;BME280;32503;47.748;8.960;2023-03-17T04:22:45;96562.94;;;4.69;60.72
3150;BME280;32503;47.748;8.960;2023-03-17T04:25:13;96559.38;;;4.56;60.58
3150;BME280;32503;47.748;8.960;2023-03-17T04:27:42;96580.91;;;4.68;60.82
3150;BME280;32503;47.748;8.960;2023-03-17T04:30:12;96582.47;;;4.69;61.01
3150;BME280;32503;47.748;8.960;2023-03-17T04:32:39;96580.91;;;4.68;61.29
3150;BME280;32503;47.748;8.960;2023-03-17T04:35:10;96560.78;;;4.53;61.17
3150;BME280;32503;47.748;8.960;2023-03-17T04:37:40;96562.56;;;4.49;61.66
3150;BME280;32503;47.748;8.960;2023-03-17T04:40:09;96548.59;;;4.35;62.18
3150;BME280;32503;47.748;8.960;2023-03-17T04:42:38;96579.53;;;4.53;62.20
3150;BME280;32503;47.748;8.960;2023-03-17T04:45:07;96555.53;;;4.36;62.15
3150;BME280;32503;47.748;8.960;2023-03-17T04:47:36;96561.63;;;4.45;61.83
3150;BME280;32503;47.748;8.960;2023-03-17T04:50:05;96547.31;;;4.41;62.04
3150;BME280;32503;47.748;8.960;2023-03-17T04:52:33;96581.56;;;4.56;61.88
3150;BME280;32503;47.748;8.960;2023-03-17T04:55:02;96581.44;;;4.53;62.13
3150;BME280;32503;47.748;8.960;2023-03-17T04:57:29;96577.41;;;4.38;62.27
3150;BME280;32503;47.748;8.960;2023-03-17T04:59:57;96589.50;;;4.44;62.54
3150;BME280;32503;47.748;8.960;2023-03-17T05:02:24;96581.00;;;4.42;62.34
3150;BME280;32503;47.748;8.960;2023-03-17T05:04:51;96575.63;;;4.51;62.16
3150;BME280;32503;47.748;8.960;2023-03-17T05:07:18;96582.88;;;4.50;61.76
3150;BME280;32503;47.748;8.960;2023-03-17T05:09:48;96589.00;;;4.51;61.63
3150;BME280;32503;47.748;8.960;2023-03-17T05:12:17;96583.81;;;4.46;61.79
3150;BME280;32503;47.748;8.960;2023-03-17T05:14:45;96568.13;;;4.35;61.50
3150;BME280;32503;47.748;8.960;2023-03-17T05:17:12;96581.63;;;4.39;61.62
3150;BME280;32503;47.748;8.960;2023-03-17T05:19:39;96582.63;;;4.34;61.76
3150;BME280;32503;47.748;8.960;2023-03-17T05:22:07;96582.47;;;4.31;61.63
3150;BME280;32503;47.748;8.960;2023-03-17T05:24:34;96585.03;;;4.18;62.18
3150;BME280;32503;47.748;8.960;2023-03-17T05:27:01;96589.44;;;4.14;62.22
3150;BME280;32503;47.748;8.960;2023-03-17T05:29:30;96560.84;;;3.97;62.23
3150;BME280;32503;47.748;8.960;2023-03-17T05:31:57;96596.34;;;4.15;62.30
3150;BME280;32503;47.748;8.960;2023-03-17T05:34:24;96574.84;;;3.94;62.53
3150;BME280;32503;47.748;8.960;2023-03-17T05:36:51;96592.25;;;4.09;62.35
3150;BME280;32503;47.748;8.960;2023-03-17T05:39:19;96597.44;;;4.23;61.98
3150;BME280;32503;47.748;8.960;2023-03-17T05:41:46;96596.03;;;4.17;62.28
3150;BME280;32503;47.748;8.960;2023-03-17T05:44:13;96603.91;;;4.13;62.15
3150;BME280;32503;47.748;8.960;2023-03-17T05:46:42;96581.44;;;3.97;62.59
3150;BME280;32503;47.748;8.960;2023-03-17T05:49:09;96608.97;;;4.15;62.53
3150;BME280;32503;47.748;8.960;2023-03-17T05:51:37;96605.31;;;4.11;62.24
3150;BME280;32503;47.748;8.960;2023-03-17T05:54:04;96596.84;;;4.09;62.11
3150;BME280;32503;47.748;8.960;2023-03-17T05:56:32;96612.88;;;4.17;62.22
3150;BME280;32503;47.748;8.960;2023-03-17T05:58:59;96612.25;;;4.21;62.74
3150;BME280;32503;47.748;8.960;2023-03-17T06:01:27;96605.78;;;4.22;62.25
3150;BME280;32503;47.748;8.960;2023-03-17T06:03:56;96602.47;;;4.25;62.28
3150;BME280;32503;47.748;8.960;2023-03-17T06:06:23;96605.44;;;4.32;61.99
3150;BME280;32503;47.748;8.960;2023-03-17T06:08:50;96612.66;;;4.40;61.95
3150;BME280;32503;47.748;8.960;2023-03-17T06:11:17;96613.09;;;4.51;61.70
3150;BME280;32503;47.748;8.960;2023-03-17T06:13:46;96600.56;;;4.72;61.29
3150;BME280;32503;47.748;8.960;2023-03-17T06:16:13;96603.47;;;4.88;61.05
3150;BME280;32503;47.748;8.960;2023-03-17T06:18:41;96606.06;;;5.06;60.39
3150;BME280;32503;47.748;8.960;2023-03-17T06:21:09;96603.47;;;5.18;60.20
3150;BME280;32503;47.748;8.960;2023-03-17T06:23:36;96602.72;;;5.60;59.64
3150;BME280;32503;47.748;8.960;2023-03-17T06:26:04;96599.00;;;6.06;59.26
3150;BME280;32503;47.748;8.960;2023-03-17T06:28:31;96614.72;;;6.87;56.92
3150;BME280;32503;47.748;8.960;2023-03-17T06:30:59;96602.69;;;7.34;55.59
3150;BME280;32503;47.748;8.960;2023-03-17T06:33:26;96612.03;;;7.65;55.33
3150;BME280;32503;47.748;8.960;2023-03-17T06:35:54;96610.53;;;7.79;54.75
3150;BME280;32503;47.748;8.960;2023-03-17T06:38:24;96613.16;;;8.20;54.00
3150;BME280;32503;47.748;8.960;2023-03-17T06:40:51;96601.00;;;8.86;53.25
3150;BME280;32503;47.748;8.960;2023-03-17T06:43:18;96597.81;;;9.52;51.31
3150;BME280;32503;47.748;8.960;2023-03-17T06:45:46;96599.38;;;10.31;48.26
3150;BME280;32503;47.748;8.960;2023-03-17T06:48:14;96601.06;;;10.85;46.66
3150;BME280;32503;47.748;8.960;2023-03-17T06:50:41;96601.72;;;11.28;46.09
3150;BME280;32503;47.748;8.960;2023-03-17T06:53:08;96593.41;;;11.41;44.59
3150;BME280;32503;47.748;8.960;2023-03-17T06:55:36;96610.09;;;11.76;43.75
3150;BME280;32503;47.748;8.960;2023-03-17T06:58:03;96601.28;;;12.13;43.18
3150;BME280;32503;47.748;8.960;2023-03-17T07:00:30;96621.94;;;12.66;41.57
3150;BME280;32503;47.748;8.960;2023-03-17T07:02:57;96619.97;;;13.04;40.63
3150;BME280;32503;47.748;8.960;2023-03-17T07:05:26;96622.19;;;13.43;40.20
3150;BME280;32503;47.748;8.960;2023-03-17T07:07:53;96627.13;;;13.97;39.68
3150;BME280;32503;47.748;8.960;2023-03-17T07:10:20;96626.50;;;14.54;38.33
3150;BME280;32503;47.748;8.960;2023-03-17T07:12:49;96629.31;;;14.75;37.50
3150;BME280;32503;47.748;8.960;2023-03-17T07:15:17;96632.81;;;14.76;36.63
3150;BME280;32503;47.748;8.960;2023-03-17T07:17:45;96626.91;;;14.56;36.76
3150;BME280;32503;47.748;8.960;2023-03-17T07:20:12;96629.16;;;14.25;37.91
3150;BME280;32503;47.748;8.960;2023-03-17T07:22:40;96635.25;;;13.93;37.95
3150;BME280;32503;47.748;8.960;2023-03-17T07:25:08;96615.66;;;13.55;38.83
3150;BME280;32503;47.748;8.960;2023-03-17T07:27:36;96629.50;;;13.39;39.15
3150;BME280;32503;47.748;8.960;2023-03-17T07:30:06;96624.75;;;13.22;40.42
3150;BME280;32503;47.748;8.960;2023-03-17T07:32:35;96622.44;;;13.27;39.87
3150;BME280;32503;47.748;8.960;2023-03-17T07:35:02;96622.38;;;13.17;39.91
3150;BME280;32503;47.748;8.960;2023-03-17T07:37:29;96612.25;;;13.14;39.62
3150;BME280;32503;47.748;8.960;2023-03-17T07:39:56;96607.09;;;12.98;40.49
3150;BME280;32503;47.748;8.960;2023-03-17T07:42:23;96604.06;;;13.06;40.82
3150;BME280;32503;47.748;8.960;2023-03-17T07:44:53;96592.03;;;13.07;40.65
3150;BME280;32503;47.748;8.960;2023-03-17T07:47:22;96594.84;;;12.70;40.65
3150;BME280;32503;47.748;8.960;2023-03-17T07:49:49;96596.56;;;12.44;42.01
3150;BME280;32503;47.748;8.960;2023-03-17T07:52:16;96612.22;;;12.24;43.24
3150;BME280;32503;47.748;8.960;2023-03-17T07:54:43;96617.91;;;12.12;43.30
3150;BME280;32503;47.748;8.960;2023-03-17T07:57:10;96629.88;;;12.07;43.44
3150;BME280;32503;47.748;8.960;2023-03-17T07:59:37;96632.25;;;12.12;43.50
3150;BME280;32503;47.748;8.960;2023-03-17T08:02:08;96621.16;;;12.25;43.57
3150;BME280;32503;47.748;8.960;2023-03-17T08:04:38;96616.91;;;12.27;43.49
3150;BME280;32503;47.748;8.960;2023-03-17T08:07:06;96617.47;;;12.06;43.56
3150;BME280;32503;47.748;8.960;2023-03-17T08:09:33;96617.38;;;11.99;43.84
3150;BME280;32503;47.748;8.960;2023-03-17T08:12:00;96602.97;;;11.91;44.05
3150;BME280;32503;47.748;8.960;2023-03-17T08:14:28;96615.19;;;11.82;44.28
3150;BME280;32503;47.748;8.960;2023-03-17T08:16:55;96617.34;;;11.95;43.56
3150;BME280;32503;47.748;8.960;2023-03-17T08:19:22;96620.97;;;12.10;43.41
3150;BME280;32503;47.748;8.960;2023-03-17T08:21:51;96622.91;;;12.10;43.20
3150;BME280;32503;47.748;8.960;2023-03-17T08:24:19;96608.06;;;12.30;43.52
3150;BME280;32503;47.748;8.960;2023-03-17T08:26:47;96601.22;;;12.47;43.08
3150;BME280;32503;47.748;8.960;2023-03-17T08:29:14;96608.88;;;12.79;42.53
3150;BME280;32503;47.748;8.960;2023-03-17T08:31:41;96602.88;;;13.04;41.56
3150;BME280;32503;47.748;8.960;2023-03-17T08:34:08;96596.00;;;13.17;40.60
3150;BME280;32503;47.748;8.960;2023-03-17T08:36:36;96600.66;;;13.17;40.77
3150;BME280;32503;47.748;8.960;2023-03-17T08:39:04;96594.91;;;13.25;40.53
3150;BME280;32503;47.748;8.960;2023-03-17T08:41:32;96592.34;;;13.47;40.40
3150;BME280;32503;47.748;8.960;2023-03-17T08:43:59;96599.28;;;13.41;40.13
3150;BME280;32503;47.748;8.960;2023-03-17T08:46:29;96574.44;;;13.39;40.24
3150;BME280;32503;47.748;8.960;2023-03-17T08:48:58;96594.63;;;13.38;40.60
3150;BME280;32503;47.748;8.960;2023-03-17T08:51:30;96590.56;;;13.17;41.37
3150;BME280;32503;47.748;8.960;2023-03-17T08:53:59;96584.28;;;13.02;41.29
3150;BME280;32503;47.748;8.960;2023-03-17T08:56:30;96585.91;;;13.18;41.41
3150;BME280;32503;47.748;8.960;2023-03-17T08:58:58;96586.84;;;13.36;41.76
3150;BME280;32503;47.748;8.960;2023-03-17T09:01:25;96585.00;;;13.55;41.71
3150;BME280;32503;47.748;8.960;2023-03-17T09:03:53;96584.00;;;13.88;41.40
3150;BME280;32503;47.748;8.960;2023-03-17T09:06:22;96564.69;;;14.33;41.63
3150;BME280;32503;47.748;8.960;2023-03-17T09:08:51;96569.03;;;14.98;40.97
3150;BME280;32503;47.748;8.960;2023-03-17T09:11:25;96574.47;;;15.16;38.55
3150;BME280;32503;47.748;8.960;2023-03-17T09:13:54;96567.47;;;15.08;37.86
3150;BME280;32503;47.748;8.960;2023-03-17T09:16:22;96570.59;;;14.92;37.95
3150;BME280;32503;47.748;8.960;2023-03-17T09:18:55;96576.00;;;14.42;38.01
3150;BME280;32503;47.748;8.960;2023-03-17T09:21:22;96570.78;;;13.90;38.00
3150;BME280;32503;47.748;8.960;2023-03-17T09:23:50;96571.81;;;13.57;38.72
3150;BME280;32503;47.748;8.960;2023-03-17T09:26:17;96570.66;;;13.54;39.21
3150;BME280;32503;47.748;8.960;2023-03-17T09:28:44;96574.50;;;13.53;38.84
3150;BME280;32503;47.748;8.960;2023-03-17T09:31:13;96567.47;;;13.38;39.46
3150;BME280;32503;47.748;8.960;2023-03-17T09:33:41;96566.53;;;13.19;39.66
3150;BME280;32503;47.748;8.960;2023-03-17T09:36:09;96569.06;;;13.50;39.61
3150;BME280;32503;47.748;8.960;2023-03-17T09:38:36;96571.59;;;13.94;38.84
3150;BME280;32503;47.748;8.960;2023-03-17T09:41:31;96562.31;;;14.17;37.39
3150;BME280;32503;47.748;8.960;2023-03-17T09:44:13;96575.19;;;14.34;36.93
3150;BME280;32503;47.748;8.960;2023-03-17T09:46:55;96563.22;;;14.60;36.76
3150;BME280;32503;47.748;8.960;2023-03-17T09:49:36;96556.97;;;14.42;36.06
3150;BME280;32503;47.748;8.960;2023-03-17T09:52:12;96571.72;;;14.48;36.20
3150;BME280;32503;47.748;8.960;2023-03-17T09:54:44;96556.59;;;14.76;36.00
3150;BME280;32503;47.748;8.960;2023-03-17T09:57:18;96564.38;;;14.95;35.02
3150;BME280;32503;47.748;8.960;2023-03-17T09:59:51;96562.03;;;14.94;35.16
3150;BME280;32503;47.748;8.960;2023-03-17T10:02:27;96556.22;;;14.70;34.23
3150;BME280;32503;47.748;8.960;2023-03-17T10:04:55;96572.94;;;14.72;34.56
3150;BME280;32503;47.748;8.960;2023-03-17T10:07:28;96560.47;;;14.78;34.96
3150;BME280;32503;47.748;8.960;2023-03-17T10:10:00;96561.25;;;15.04;34.80
3150;BME280;32503;47.748;8.960;2023-03-17T10:12:40;96549.91;;;15.42;34.72
3150;BME280;32503;47.748;8.960;2023-03-17T10:15:19;96553.00;;;15.47;34.47
3150;BME280;32503;47.748;8.960;2023-03-17T10:17:50;96559.28;;;15.37;34.77
3150;BME280;32503;47.748;8.960;2023-03-17T10:20:24;96544.78;;;15.54;35.00
3150;BME280;32503;47.748;8.960;2023-03-17T10:22:54;96546.84;;;15.29;34.48
3150;BME280;32503;47.748;8.960;2023-03-17T10:25:27;96553.47;;;15.17;34.82
3150;BME280;32503;47.748;8.960;2023-03-17T10:27:58;96547.66;;;15.08;35.11
3150;BME280;32503;47.748;8.960;2023-03-17T10:30:29;96534.44;;;14.92;35.06
3150;BME280;32503;47.748;8.960;2023-03-17T10:33:01;96529.75;;;15.07;35.44
3150;BME280;32503;47.748;8.960;2023-03-17T10:35:32;96530.47;;;15.32;34.89
3150;BME280;32503;47.748;8.960;2023-03-17T10:38:01;96525.72;;;15.65;34.97
3150;BME280;32503;47.748;8.960;2023-03-17T10:40:39;96524.81;;;15.90;34.36
3150;BME280;32503;47.748;8.960;2023-03-17T10:43:13;96522.41;;;16.06;34.12
3150;BME280;32503;47.748;8.960;2023-03-17T10:45:54;96519.63;;;16.17;34.00
3150;BME280;32503;47.748;8.960;2023-03-17T10:48:25;96514.50;;;16.23;33.71
3150;BME280;32503;47.748;8.960;2023-03-17T10:50:56;96516.47;;;16.22;34.36
3150;BME280;32503;47.748;8.960;2023-03-17T10:53:25;96520.69;;;16.34;34.52
3150;BME280;32503;47.748;8.960;2023-03-17T10:55:58;96509.34;;;16.36;33.95
3150;BME280;32503;47.748;8.960;2023-03-17T10:58:36;96514.75;;;16.43;33.98
3150;BME280;32503;47.748;8.960;2023-03-17T11:01:07;96513.91;;;16.53;33.68
3150;BME280;32503;47.748;8.960;2023-03-17T11:03:43;96515.50;;;16.51;34.10
3150;BME280;32503;47.748;8.960;2023-03-17T11:06:13;96518.06;;;16.72;34.81
3150;BME280;32503;47.748;8.960;2023-03-17T11:08:47;96512.91;;;16.85;34.22
3150;BME280;32503;47.748;8.960;2023-03-17T11:11:23;96507.84;;;16.80;33.33
3150;BME280;32503;47.748;8.960;2023-03-17T11:14:00;96494.28;;;16.69;33.99
3150;BME280;32503;47.748;8.960;2023-03-17T11:16:27;96497.72;;;16.84;33.93
3150;BME280;32503;47.748;8.960;2023-03-17T11:18:57;96487.16;;;16.86;33.41
3150;BME280;32503;47.748;8.960;2023-03-17T11:21:29;96486.81;;;16.77;33.81
3150;BME280;32503;47.748;8.960;2023-03-17T11:24:01;96477.41;;;16.85;34.15
3150;BME280;32503;47.748;8.960;2023-03-17T11:26:50;96473.50;;;16.86;34.33
3150;BME280;32503;47.748;8.960;2023-03-17T11:29:29;96466.44;;;16.89;34.11
3150;BME280;32503;47.748;8.960;2023-03-17T11:32:09;96460.63;;;16.83;34.04
3150;BME280;32503;47.748;8.960;2023-03-17T11:34:56;96460.25;;;16.81;33.53
3150;BME280;32503;47.748;8.960;2023-03-17T11:37:46;96458.38;;;16.74;33.50
3150;BME280;32503;47.748;8.960;2023-03-17T11:40:24;96455.72;;;16.67;34.48
3150;BME280;32503;47.748;8.960;2023-03-17T11:43:10;96455.94;;;16.42;33.73
3150;BME280;32503;47.748;8.960;2023-03-17T11:45:48;96459.06;;;16.40;34.12
3150;BME280;32503;47.748;8.960;2023-03-17T11:48:29;96453.47;;;16.09;34.91
3150;BME280;32503;47.748;8.960;2023-03-17T11:51:05;96445.19;;;16.24;35.13
3150;BME280;32503;47.748;8.960;2023-03-17T11:53:56;96440.38;;;16.39;35.09
3150;BME280;32503;47.748;8.960;2023-03-17T11:56:36;96433.38;;;16.38;34.89
3150;BME280;32503;47.748;8.960;2023-03-17T11:59:13;96426.97;;;16.55;34.76
3150;BME280;32503;47.748;8.960;2023-03-17T12:01:49;96430.81;;;16.61;34.94
3150;BME280;32503;47.748;8.960;2023-03-17T12:04:25;96426.84;;;16.70;34.04
3150;BME280;32503;47.748;8.960;2023-03-17T12:07:02;96428.28;;;16.81;33.76
3150;BME280;32503;47.748;8.960;2023-03-17T12:09:38;96424.22;;;17.00;34.02
3150;BME280;32503;47.748;8.960;2023-03-17T12:12:10;96429.38;;;17.25;34.06
3150;BME280;32503;47.748;8.960;2023-03-17T12:14:42;96419.38;;;17.46;32.90
3150;BME280;32503;47.748;8.960;2023-03-17T12:17:17;96414.22;;;17.52;32.74
3150;BME280;32503;47.748;8.960;2023-03-17T12:20:01;96421.78;;;17.71;32.74
3150;BME280;32503;47.748;8.960;2023-03-17T12:22:38;96429.13;;;17.47;32.18
3150;BME280;32503;47.748;8.960;2023-03-17T12:25:16;96423.00;;;17.36;32.85
3150;BME280;32503;47.748;8.960;2023-03-17T12:27:53;96430.00;;;17.40;32.15
3150;BME280;32503;47.748;8.960;2023-03-17T12:30:29;96421.88;;;17.64;32.88
3150;BME280;32503;47.748;8.960;2023-03-17T12:33:09;96427.63;;;18.00;32.80
3150;BME280;32503;47.748;8.960;2023-03-17T12:35:37;96425.72;;;17.97;31.41
3150;BME280;32503;47.748;8.960;2023-03-17T12:38:10;96425.81;;;18.17;31.94
3150;BME280;32503;47.748;8.960;2023-03-17T12:40:57;96405.78;;;18.48;32.16
3150;BME280;32503;47.748;8.960;2023-03-17T12:43:46;96417.69;;;18.81;31.11
3150;BME280;32503;47.748;8.960;2023-03-17T12:46:52;96407.78;;;19.11;31.16
3150;BME280;32503;47.748;8.960;2023-03-17T12:49:53;96406.22;;;19.30;30.18
3150;BME280;32503;47.748;8.960;2023-03-17T12:52:42;96399.69;;;19.04;30.65
3150;BME280;32503;47.748;8.960;2023-03-17T12:55:16;96402.16;;;19.18;30.87
3150;BME280;32503;47.748;8.960;2023-03-17T12:57:46;96398.16;;;19.03;30.34
3150;BME280;32503;47.748;8.960;2023-03-17T13:00:26;96393.31;;;18.90;30.92
3150;BME280;32503;47.748;8.960;2023-03-17T13:03:13;96387.97;;;18.83;31.66
3150;BME280;32503;47.748;8.960;2023-03-17T13:05:45;96393.31;;;18.90;32.18
3150;BME280;32503;47.748;8.960;2023-03-17T13:08:23;96381.44;;;18.97;32.12
3150;BME280;32503;47.748;8.960;2023-03-17T13:11:14;96376.19;;;19.06;32.22
3150;BME280;32503;47.748;8.960;2023-03-17T13:16:39;96368.84;;;19.40;31.55
3150;BME280;32503;47.748;8.960;2023-03-17T13:19:22;96373.28;;;19.50;30.94
3150;BME280;32503;47.748;8.960;2023-03-17T13:21:58;96370.75;;;19.59;31.29
3150;BME280;32503;47.748;8.960;2023-03-17T13:24:45;96368.28;;;19.65;31.05
3150;BME280;32503;47.748;8.960;2023-03-17T13:27:43;96371.38;;;19.67;30.61
3150;BME280;32503;47.748;8.960;2023-03-17T13:33:30;96363.50;;;19.32;31.02
3150;BME280;32503;47.748;8.960;2023-03-17T13:36:27;96376.38;;;19.16;31.26
3150;BME280;32503;47.748;8.960;2023-03-17T13:39:39;96375.09;;;18.80;31.53
3150;BME280;32503;47.748;8.960;2023-03-17T13:42:27;96364.13;;;18.36;32.40
3150;BME280;32503;47.748;8.960;2023-03-17T13:45:29;96361.88;;;18.31;33.06